createdAt,value
2018-07-08T00:01:14.889Z,16.70
2018-07-08T00:03:43.316Z,16.70
2018-07-08T00:06:11.742Z,16.60
2018-07-08T00:08:40.100Z,16.60
2018-07-08T00:11:08.503Z,16.60
2018-07-08T00:13:37.006Z,16.50
2018-07-08T00:16:05.524Z,16.40
2018-07-08T00:18:33.938Z,16.40
2018-07-08T00:21:02.371Z,16.40
2018-07-08T00:28:27.164Z,16.20
2018-07-08T00:30:55.568Z,16.20
2018-07-08T00:35:52.051Z,16.10
2018-07-08T00:38:20.472Z,16.10
2018-07-08T00:40:48.832Z,16.10
2018-07-08T00:43:17.208Z,16.00
2018-07-08T00:45:45.888Z,16.00
2018-07-08T00:48:14.880Z,16.00
2018-07-08T00:50:43.328Z,15.90
2018-07-08T00:53:11.710Z,15.90
2018-07-08T00:55:40.167Z,15.70
2018-07-08T00:58:08.538Z,15.50
2018-07-08T01:00:38.646Z,15.30
2018-07-08T01:03:09.676Z,15.30
2018-07-08T01:05:38.057Z,15.20
2018-07-08T01:08:06.478Z,15.20
2018-07-08T01:13:03.285Z,15.10
2018-07-08T01:15:31.711Z,15.10
2018-07-08T01:18:00.107Z,15.10
2018-07-08T01:20:28.492Z,15.20
2018-07-08T01:22:57.012Z,15.20
2018-07-08T01:25:36.718Z,15.20
2018-07-08T01:28:05.246Z,15.30
2018-07-08T01:30:33.745Z,15.30
2018-07-08T01:33:02.118Z,15.30
2018-07-08T01:35:31.333Z,15.30
2018-07-08T01:37:59.750Z,15.30
2018-07-08T01:40:28.070Z,15.30
2018-07-08T01:42:56.425Z,15.20
2018-07-08T01:45:24.802Z,15.20
2018-07-08T01:47:53.190Z,15.20
2018-07-08T01:50:21.592Z,15.20
2018-07-08T01:52:49.977Z,15.20
2018-07-08T01:55:18.429Z,15.20
2018-07-08T01:57:46.819Z,15.10
2018-07-08T02:00:15.289Z,15.10
2018-07-08T02:02:43.616Z,15.10
2018-07-08T02:05:12.031Z,15.00
2018-07-08T02:07:40.535Z,15.00
2018-07-08T02:10:08.905Z,15.00
2018-07-08T02:12:37.324Z,15.00
2018-07-08T02:15:05.978Z,15.00
2018-07-08T02:17:34.447Z,15.00
2018-07-08T02:20:02.873Z,14.90
2018-07-08T02:22:31.251Z,14.90
2018-07-08T02:24:59.640Z,14.90
2018-07-08T02:27:28.047Z,14.80
2018-07-08T02:29:56.465Z,14.80
2018-07-08T02:32:24.859Z,14.70
2018-07-08T02:34:53.272Z,14.70
2018-07-08T02:37:21.790Z,14.70
2018-07-08T02:39:50.251Z,14.70
2018-07-08T02:42:18.652Z,14.70
2018-07-08T02:44:47.115Z,14.60
2018-07-08T02:47:15.545Z,14.60
2018-07-08T02:49:43.941Z,14.60
2018-07-08T02:52:12.340Z,14.50
2018-07-08T02:54:40.684Z,14.50
2018-07-08T02:57:09.391Z,14.50
2018-07-08T02:59:37.722Z,14.40
2018-07-08T03:02:06.151Z,14.40
2018-07-08T03:04:35.211Z,14.40
2018-07-08T03:07:03.592Z,14.30
2018-07-08T03:09:31.966Z,14.30
2018-07-08T03:12:00.983Z,14.30
2018-07-08T03:14:29.380Z,14.20
2018-07-08T03:16:57.744Z,14.20
2018-07-08T03:19:26.143Z,14.20
2018-07-08T03:21:54.755Z,14.10
2018-07-08T03:24:23.161Z,14.10
2018-07-08T03:26:51.568Z,14.00
2018-07-08T03:29:19.948Z,14.00
2018-07-08T03:31:48.334Z,14.00
2018-07-08T03:34:16.685Z,13.90
2018-07-08T03:36:45.089Z,13.90
2018-07-08T03:39:13.469Z,13.90
2018-07-08T03:41:41.851Z,13.80
2018-07-08T03:44:10.198Z,13.80
2018-07-08T03:46:38.600Z,13.80
2018-07-08T03:49:07.626Z,13.80
2018-07-08T03:51:35.971Z,13.80
2018-07-08T03:54:11.615Z,13.80
2018-07-08T03:56:39.983Z,13.80
2018-07-08T03:59:08.363Z,13.90
2018-07-08T04:01:36.720Z,13.90
2018-07-08T04:04:05.077Z,13.90
2018-07-08T04:06:34.055Z,13.90
2018-07-08T04:09:02.417Z,13.90
2018-07-08T04:11:31.495Z,13.90
2018-07-08T04:13:59.906Z,13.90
2018-07-08T04:16:28.279Z,13.90
2018-07-08T04:18:57.321Z,13.90
2018-07-08T04:21:25.643Z,13.90
2018-07-08T04:23:54.021Z,13.90
2018-07-08T04:26:22.345Z,13.90
2018-07-08T04:28:50.659Z,13.80
2018-07-08T04:36:15.827Z,13.90
2018-07-08T04:38:44.178Z,13.90
2018-07-08T04:46:08.849Z,13.90
2018-07-08T04:48:37.233Z,13.90
2018-07-08T04:51:05.655Z,13.90
2018-07-08T04:53:34.054Z,13.90
2018-07-08T04:56:02.423Z,13.90
2018-07-08T04:58:30.755Z,13.90
2018-07-08T05:00:59.157Z,13.90
2018-07-08T05:03:27.529Z,13.80
2018-07-08T05:05:55.925Z,13.90
2018-07-08T05:08:24.378Z,13.90
2018-07-08T05:10:52.755Z,13.90
2018-07-08T05:13:21.157Z,14.00
2018-07-08T05:15:49.523Z,14.00
2018-07-08T05:18:17.893Z,14.10
2018-07-08T05:20:46.309Z,14.10
2018-07-08T05:25:42.777Z,14.20
2018-07-08T05:28:11.134Z,14.30
2018-07-08T05:33:07.776Z,14.40
2018-07-08T05:35:36.147Z,14.60
2018-07-08T05:38:04.755Z,14.60
2018-07-08T05:40:33.166Z,14.80
2018-07-08T05:43:01.520Z,14.90
2018-07-08T05:45:29.875Z,15.00
2018-07-08T05:47:58.335Z,15.10
2018-07-08T05:50:26.798Z,15.20
2018-07-08T05:52:55.190Z,15.40
2018-07-08T05:55:23.577Z,15.50
2018-07-08T05:57:52.685Z,15.60
2018-07-08T06:00:21.089Z,15.60
2018-07-08T06:02:49.554Z,15.70
2018-07-08T06:05:17.969Z,15.80
2018-07-08T06:07:46.280Z,15.90
2018-07-08T06:10:14.678Z,15.90
2018-07-08T06:12:43.113Z,16.00
2018-07-08T06:15:11.457Z,16.10
2018-07-08T06:17:39.808Z,16.20
2018-07-08T06:20:09.603Z,16.30
2018-07-08T06:22:38.286Z,16.40
2018-07-08T06:25:06.795Z,16.50
2018-07-08T06:27:35.605Z,16.60
2018-07-08T06:30:04.753Z,16.70
2018-07-08T06:32:33.145Z,17.00
2018-07-08T06:35:01.526Z,17.20
2018-07-08T06:37:29.896Z,17.40
2018-07-08T06:39:58.269Z,17.60
2018-07-08T06:42:26.618Z,17.80
2018-07-08T06:44:54.960Z,18.00
2018-07-08T06:47:23.486Z,18.10
2018-07-08T06:49:51.810Z,18.20
2018-07-08T06:52:20.183Z,18.30
2018-07-08T06:54:48.515Z,18.50
2018-07-08T06:57:16.882Z,18.60
2018-07-08T06:59:45.272Z,18.70
2018-07-08T07:02:13.592Z,18.90
2018-07-08T07:04:41.964Z,19.00
2018-07-08T07:07:10.495Z,19.10
2018-07-08T07:09:38.922Z,19.20
2018-07-08T07:12:07.865Z,19.30
2018-07-08T07:14:36.254Z,19.40
2018-07-08T07:17:04.696Z,19.50
2018-07-08T07:19:33.326Z,19.60
2018-07-08T07:22:02.324Z,19.60
2018-07-08T07:24:30.780Z,19.80
2018-07-08T07:29:27.387Z,20.00
2018-07-08T07:31:55.782Z,20.20
2018-07-08T07:34:24.152Z,20.30
2018-07-08T07:36:52.558Z,20.40
2018-07-08T07:39:20.896Z,20.50
2018-07-08T07:41:49.258Z,20.60
2018-07-08T07:44:17.628Z,20.80
2018-07-08T07:46:46.072Z,20.90
2018-07-08T07:49:14.452Z,21.00
2018-07-08T07:51:42.804Z,21.00
2018-07-08T07:54:11.168Z,21.10
2018-07-08T07:56:39.530Z,21.20
2018-07-08T07:59:07.999Z,21.30
2018-07-08T08:01:36.951Z,21.40
2018-07-08T08:04:05.392Z,21.50
2018-07-08T08:06:33.735Z,21.60
2018-07-08T08:09:02.583Z,21.60
2018-07-08T08:11:31.015Z,21.70
2018-07-08T08:14:03.738Z,21.80
2018-07-08T08:16:32.115Z,22.00
2018-07-08T08:19:01.507Z,22.10
2018-07-08T08:21:29.870Z,22.20
2018-07-08T08:23:58.893Z,22.20
2018-07-08T08:26:28.147Z,22.30
2018-07-08T08:28:56.523Z,22.30
2018-07-08T08:31:24.866Z,22.40
2018-07-08T08:35:09.889Z,22.50
2018-07-08T08:37:43.319Z,22.60
2018-07-08T08:40:12.640Z,22.80
2018-07-08T08:42:41.052Z,23.00
2018-07-08T08:45:10.641Z,23.10
2018-07-08T08:47:39.079Z,23.20
2018-07-08T08:50:08.462Z,23.40
2018-07-08T08:52:36.987Z,23.40
2018-07-08T08:55:06.128Z,23.60
2018-07-08T08:57:35.127Z,23.60
2018-07-08T09:00:04.757Z,23.80
2018-07-08T09:02:33.106Z,23.80
2018-07-08T09:07:29.736Z,23.90
2018-07-08T09:09:58.661Z,24.10
2018-07-08T09:12:27.029Z,24.20
2018-07-08T09:14:55.412Z,24.20
2018-07-08T09:17:23.808Z,24.30
2018-07-08T09:19:52.136Z,24.30
2018-07-08T09:22:20.529Z,24.40
2018-07-08T09:24:48.901Z,24.40
2018-07-08T09:27:17.301Z,24.30
2018-07-08T09:29:45.643Z,24.30
2018-07-08T09:32:14.092Z,24.40
2018-07-08T09:34:42.523Z,24.60
2018-07-08T09:37:10.920Z,24.80
2018-07-08T09:39:39.945Z,24.80
2018-07-08T09:42:08.283Z,24.80
2018-07-08T09:44:36.632Z,24.80
2018-07-08T09:47:05.145Z,24.90
2018-07-08T09:56:57.709Z,24.80
2018-07-08T09:59:26.061Z,25.00
2018-07-08T10:01:54.435Z,24.40
2018-07-08T10:04:24.018Z,23.80
2018-07-08T10:06:53.266Z,24.10
2018-07-08T10:09:22.863Z,24.50
2018-07-08T10:11:51.414Z,24.90
2018-07-08T10:14:21.066Z,25.30
2018-07-08T10:16:49.574Z,25.40
2018-07-08T10:19:18.899Z,25.50
2018-07-08T10:21:47.188Z,25.80
2018-07-08T10:24:15.702Z,26.00
2018-07-08T10:26:44.119Z,25.90
2018-07-08T10:31:46.022Z,26.20
2018-07-08T10:34:14.548Z,26.20
2018-07-08T10:36:43.138Z,26.30
2018-07-08T10:39:12.727Z,26.50
2018-07-08T10:41:41.434Z,26.60
2018-07-08T10:44:10.047Z,26.50
2018-07-08T10:46:38.422Z,25.80
2018-07-08T10:49:07.336Z,25.60
2018-07-08T10:51:35.817Z,25.80
2018-07-08T10:54:04.265Z,26.00
2018-07-08T10:56:32.705Z,26.40
2018-07-08T10:59:01.176Z,26.60
2018-07-08T11:01:29.563Z,26.90
2018-07-08T11:03:57.930Z,27.40
2018-07-08T11:06:26.352Z,27.30
2018-07-08T11:08:54.789Z,26.50
2018-07-08T11:11:23.147Z,25.80
2018-07-08T11:13:51.675Z,25.30
2018-07-08T11:16:20.469Z,25.60
2018-07-08T11:18:48.863Z,25.50
2018-07-08T11:21:17.244Z,25.80
2018-07-08T11:23:45.663Z,26.00
2018-07-08T11:26:14.163Z,26.50
2018-07-08T11:28:42.493Z,26.80
2018-07-08T11:36:07.387Z,26.60
2018-07-08T11:38:36.331Z,26.30
2018-07-08T11:41:04.740Z,26.50
2018-07-08T11:43:33.185Z,27.10
2018-07-08T11:46:02.127Z,27.70
2018-07-08T11:48:30.482Z,28.20
2018-07-08T11:50:58.853Z,28.50
2018-07-08T11:53:27.197Z,28.90
2018-07-08T11:55:55.627Z,29.20
2018-07-08T11:58:23.983Z,29.30
2018-07-08T12:00:52.340Z,29.20
2018-07-08T12:05:49.003Z,28.20
2018-07-08T12:08:17.349Z,28.60
2018-07-08T12:10:45.695Z,29.00
2018-07-08T12:13:14.093Z,29.10
2018-07-08T12:15:42.421Z,28.50
2018-07-08T12:18:10.838Z,28.30
2018-07-08T12:20:39.621Z,28.60
2018-07-08T12:23:08.064Z,29.00
2018-07-08T12:28:04.709Z,29.30
2018-07-08T12:30:33.122Z,29.60
2018-07-08T12:33:01.573Z,29.80
2018-07-08T12:37:58.053Z,30.30
2018-07-08T12:40:26.441Z,30.40
2018-07-08T12:42:54.797Z,30.20
2018-07-08T12:47:51.413Z,30.50
2018-07-08T12:50:19.824Z,30.50
2018-07-08T12:52:48.632Z,30.70
2018-07-08T12:55:16.985Z,30.80
2018-07-08T13:00:13.433Z,31.20
2018-07-08T13:05:10.101Z,31.50
2018-07-08T13:07:38.435Z,31.60
2018-07-08T13:12:34.875Z,31.60
2018-07-08T13:15:03.323Z,31.60
2018-07-08T13:17:31.718Z,31.90
2018-07-08T13:20:00.135Z,32.10
2018-07-08T13:22:35.161Z,32.10
2018-07-08T13:25:03.659Z,32.10
2018-07-08T13:27:32.057Z,32.10
2018-07-08T13:30:00.492Z,32.20
2018-07-08T13:32:28.845Z,32.10
2018-07-08T13:34:57.252Z,32.20
2018-07-08T13:37:25.687Z,32.10
2018-07-08T13:40:00.523Z,32.30
2018-07-08T13:42:28.878Z,32.10
2018-07-08T13:45:04.127Z,32.30
2018-07-08T13:47:32.466Z,31.40
2018-07-08T13:50:00.805Z,31.70
2018-07-08T13:52:29.254Z,31.90
2018-07-08T13:54:57.612Z,32.10
2018-07-08T13:57:26.232Z,32.30
2018-07-08T13:59:54.560Z,32.50
2018-07-08T14:02:22.878Z,32.60
2018-07-08T14:04:51.236Z,32.60
2018-07-08T14:12:16.275Z,32.80
2018-07-08T14:14:44.703Z,32.80
2018-07-08T14:17:13.097Z,32.40
2018-07-08T14:19:41.466Z,32.20
2018-07-08T14:22:09.850Z,31.10
2018-07-08T14:24:38.236Z,30.40
2018-07-08T14:27:06.788Z,30.40
2018-07-08T14:29:35.531Z,31.10
2018-07-08T14:32:03.918Z,31.60
2018-07-08T14:34:32.920Z,32.20
2018-07-08T14:37:01.454Z,32.60
2018-07-08T14:39:29.861Z,32.90
2018-07-08T14:41:58.215Z,33.30
2018-07-08T14:44:26.645Z,33.20
2018-07-08T14:46:55.041Z,33.20
2018-07-08T14:49:23.405Z,33.10
2018-07-08T14:51:51.779Z,33.20
2018-07-08T14:54:20.179Z,33.30
2018-07-08T14:56:48.608Z,33.30
2018-07-08T14:59:17.019Z,33.30
2018-07-08T15:01:45.536Z,33.40
2018-07-08T15:04:13.916Z,33.00
2018-07-08T15:06:42.245Z,33.20
2018-07-08T15:09:11.816Z,33.50
2018-07-08T15:11:40.199Z,33.70
2018-07-08T15:14:08.675Z,33.80
2018-07-08T15:16:37.087Z,33.90
2018-07-08T15:19:06.132Z,33.90
2018-07-08T15:21:34.475Z,33.90
2018-07-08T15:24:02.831Z,33.70
2018-07-08T15:26:31.174Z,33.70
2018-07-08T15:28:59.656Z,33.70
2018-07-08T15:31:28.101Z,33.70
2018-07-08T15:33:56.509Z,33.80
2018-07-08T15:36:24.866Z,34.00
2018-07-08T15:38:53.208Z,33.80
2018-07-08T15:41:21.570Z,33.70
2018-07-08T15:43:50.829Z,33.70
2018-07-08T15:46:19.188Z,33.80
2018-07-08T15:48:47.576Z,33.90
2018-07-08T15:51:15.918Z,33.90
2018-07-08T15:53:44.284Z,34.00
2018-07-08T15:56:12.634Z,34.10
2018-07-08T15:58:41.045Z,34.00
2018-07-08T16:01:09.428Z,34.10
2018-07-08T16:03:37.799Z,34.20
2018-07-08T16:06:06.251Z,34.10
2018-07-08T16:08:35.240Z,34.00
2018-07-08T16:11:04.653Z,34.10
2018-07-08T16:13:33.037Z,34.10
2018-07-08T16:16:01.461Z,34.00
2018-07-08T16:20:58.072Z,34.10
2018-07-08T16:23:26.513Z,34.00
2018-07-08T16:25:54.912Z,33.80
2018-07-08T16:28:23.304Z,33.70
2018-07-08T16:30:51.703Z,33.60
2018-07-08T16:33:20.056Z,33.60
2018-07-08T16:35:54.626Z,33.60
2018-07-08T16:38:23.025Z,33.30
2018-07-08T16:43:20.811Z,33.00
2018-07-08T16:45:49.349Z,33.10
2018-07-08T16:48:19.082Z,32.90
2018-07-08T16:50:48.043Z,33.00
2018-07-08T16:53:16.454Z,33.00
2018-07-08T16:55:44.896Z,33.00
2018-07-08T16:58:13.292Z,32.80
2018-07-08T17:00:41.691Z,32.80
2018-07-08T17:03:10.034Z,32.80
2018-07-08T17:05:38.418Z,32.60
2018-07-08T17:08:06.809Z,32.70
2018-07-08T17:10:35.130Z,32.70
2018-07-08T17:13:04.183Z,32.60
2018-07-08T17:15:32.581Z,32.40
2018-07-08T17:18:01.004Z,32.40
2018-07-08T17:20:29.324Z,32.40
2018-07-08T17:25:25.824Z,32.20
2018-07-08T17:27:54.234Z,32.20
2018-07-08T17:30:22.748Z,32.00
2018-07-08T17:32:51.332Z,31.90
2018-07-08T17:35:19.752Z,31.80
2018-07-08T17:37:48.126Z,31.70
2018-07-08T17:40:16.542Z,31.60
2018-07-08T17:42:45.000Z,31.50
2018-07-08T17:45:13.410Z,31.30
2018-07-08T17:47:41.813Z,31.10
2018-07-08T17:50:10.159Z,30.80
2018-07-08T17:52:38.551Z,30.40
2018-07-08T17:55:07.271Z,30.10
2018-07-08T17:57:35.645Z,29.80
2018-07-08T18:00:04.192Z,29.50
2018-07-08T18:02:32.576Z,29.10
2018-07-08T18:05:01.027Z,28.90
2018-07-08T18:07:29.466Z,28.50
2018-07-08T18:09:57.797Z,28.30
2018-07-08T18:12:26.527Z,28.10
2018-07-08T18:17:22.945Z,27.60
2018-07-08T18:19:51.315Z,27.30
2018-07-08T18:22:19.726Z,27.10
2018-07-08T18:24:48.465Z,26.90
2018-07-08T18:27:16.916Z,26.80
2018-07-08T18:32:13.663Z,26.60
2018-07-08T18:34:42.000Z,26.40
2018-07-08T18:37:10.361Z,26.30
2018-07-08T18:39:38.734Z,26.10
2018-07-08T18:42:07.183Z,26.00
2018-07-08T18:47:04.320Z,25.90
2018-07-08T18:49:32.816Z,25.80
2018-07-08T18:52:01.303Z,25.70
2018-07-08T18:54:29.649Z,25.60
2018-07-08T18:56:58.080Z,25.50
2018-07-08T18:59:26.470Z,25.40
2018-07-08T19:04:23.141Z,25.20
2018-07-08T19:06:51.639Z,25.00
2018-07-08T19:09:20.029Z,25.00
2018-07-08T19:11:48.561Z,24.80
2018-07-08T19:14:17.505Z,24.70
2018-07-08T19:16:46.193Z,24.60
2018-07-08T19:19:14.596Z,24.50
2018-07-08T19:21:43.779Z,24.40
2018-07-08T19:24:12.147Z,24.30
2018-07-08T19:26:41.284Z,24.30
2018-07-08T19:29:10.288Z,24.20
2018-07-08T19:31:39.493Z,24.10
2018-07-08T19:34:07.948Z,24.00
2018-07-08T19:36:36.335Z,23.90
2018-07-08T19:39:06.399Z,23.80
2018-07-08T19:41:36.223Z,23.70
2018-07-08T19:44:04.578Z,23.60
2018-07-08T19:46:33.064Z,23.50
2018-07-08T19:49:01.429Z,23.40
2018-07-08T19:51:30.473Z,23.30
2018-07-08T19:53:59.898Z,23.20
2018-07-08T19:56:28.594Z,23.10
2018-07-08T19:58:57.088Z,23.10
2018-07-08T20:01:25.689Z,23.10
2018-07-08T20:03:54.273Z,23.10
2018-07-08T20:06:22.736Z,23.00
2018-07-08T20:08:51.182Z,22.90
2018-07-08T20:11:20.439Z,22.80
2018-07-08T20:13:48.793Z,22.80
2018-07-08T20:16:17.187Z,22.60
2018-07-08T20:18:45.586Z,22.50
2018-07-08T20:21:14.254Z,22.30
2018-07-08T20:23:42.781Z,22.20
2018-07-08T20:26:11.201Z,22.00
2018-07-08T20:28:39.754Z,21.90
2018-07-08T20:31:08.105Z,21.80
2018-07-08T20:33:36.557Z,21.70
2018-07-08T20:36:04.917Z,21.60
2018-07-08T20:38:33.925Z,21.60
2018-07-08T20:41:02.286Z,21.50
2018-07-08T20:45:58.914Z,21.30
2018-07-08T20:48:27.324Z,21.20
2018-07-08T20:50:55.821Z,21.10
2018-07-08T20:53:24.156Z,21.10
2018-07-08T20:55:52.547Z,20.90
2018-07-08T21:00:50.316Z,20.70
2018-07-08T21:03:18.697Z,20.60
2018-07-08T21:05:47.073Z,20.50
2018-07-08T21:08:15.636Z,20.50
2018-07-08T21:10:44.048Z,20.40
2018-07-08T21:15:40.569Z,20.30
2018-07-08T21:18:08.930Z,20.30
2018-07-08T21:20:37.306Z,20.30
2018-07-08T21:23:05.757Z,20.20
2018-07-08T21:25:34.206Z,20.10
2018-07-08T21:28:03.371Z,20.00
2018-07-08T21:30:31.824Z,19.90
2018-07-08T21:33:00.257Z,19.70
2018-07-08T21:35:28.937Z,19.60
2018-07-08T21:40:25.439Z,19.40
2018-07-08T21:42:54.093Z,19.40
2018-07-08T21:45:23.313Z,19.20
2018-07-08T21:47:51.714Z,19.10
2018-07-08T21:50:20.100Z,18.90
2018-07-08T21:52:48.511Z,18.80
2018-07-08T21:55:16.875Z,18.60
2018-07-08T21:57:45.284Z,18.50
2018-07-08T22:00:13.768Z,18.50
2018-07-08T22:05:10.707Z,18.40
2018-07-08T22:07:44.369Z,18.40
2018-07-08T22:10:12.725Z,18.30
2018-07-08T22:12:41.177Z,18.40
2018-07-08T22:15:09.571Z,18.40
2018-07-08T22:20:06.316Z,18.20
2018-07-08T22:22:34.712Z,18.20
2018-07-08T22:27:31.220Z,18.10
2018-07-08T22:30:00.290Z,18.10
2018-07-08T22:32:28.685Z,18.00
2018-07-08T22:34:57.188Z,17.80
2018-07-08T22:37:25.544Z,17.70
2018-07-08T22:39:54.917Z,17.70
2018-07-08T22:44:51.341Z,17.50
2018-07-08T22:49:47.778Z,17.40
2018-07-08T22:52:16.836Z,17.40
2018-07-08T22:54:45.250Z,17.30
2018-07-08T22:57:13.731Z,17.20
2018-07-08T22:59:53.406Z,17.20
2018-07-08T23:02:33.078Z,17.20
2018-07-08T23:05:01.576Z,17.10
2018-07-08T23:07:30.214Z,17.00
2018-07-08T23:09:58.624Z,16.90
2018-07-08T23:12:27.024Z,16.90
2018-07-08T23:14:55.386Z,16.80
2018-07-08T23:17:23.785Z,16.80
2018-07-08T23:19:52.236Z,16.70
2018-07-08T23:22:25.398Z,16.70
2018-07-08T23:24:53.824Z,16.60
2018-07-08T23:27:22.240Z,16.60
2018-07-08T23:29:50.597Z,16.50
2018-07-08T23:34:47.151Z,16.40
2018-07-08T23:37:15.530Z,16.30
2018-07-08T23:39:43.966Z,16.30
2018-07-08T23:42:12.378Z,16.20
2018-07-08T23:44:40.820Z,16.20
2018-07-08T23:47:09.129Z,16.10
2018-07-08T23:49:37.508Z,16.10
2018-07-08T23:52:05.916Z,16.10
2018-07-08T23:54:34.298Z,16.00
2018-07-08T23:57:02.737Z,15.90
2018-07-08T23:59:31.711Z,15.80
